createdAt,value
2023-05-14T00:03:02.630Z,20.73
2023-05-14T00:08:48.229Z,20.72
2023-05-14T00:14:32.841Z,20.68
2023-05-14T00:20:17.604Z,20.63
2023-05-14T00:26:02.957Z,20.61
2023-05-14T00:31:47.750Z,20.58
2023-05-14T00:37:33.728Z,20.57
2023-05-14T00:43:18.390Z,20.5
2023-05-14T00:49:03.306Z,20.43
2023-05-14T00:54:48.714Z,20.39
2023-05-14T01:00:34.323Z,20.39
2023-05-14T01:06:23.587Z,20.35
2023-05-14T01:12:16.908Z,20.34
2023-05-14T01:18:04.616Z,20.39
2023-05-14T01:23:49.878Z,20.34
2023-05-14T01:29:36.994Z,20.26
2023-05-14T01:35:22.461Z,20.29
2023-05-14T01:41:07.345Z,20.27
2023-05-14T01:46:53.126Z,20.2
2023-05-14T01:52:38.685Z,20.18
2023-05-14T01:58:23.689Z,20.14
2023-05-14T02:04:08.641Z,20.1
2023-05-14T02:09:53.397Z,20.08
2023-05-14T02:15:38.039Z,20.04
2023-05-14T02:21:22.840Z,20
2023-05-14T02:27:07.618Z,19.99
2023-05-14T02:32:52.372Z,19.96
2023-05-14T02:38:37.431Z,19.95
2023-05-14T02:44:22.200Z,19.92
2023-05-14T02:50:07.707Z,19.88
2023-05-14T02:55:52.438Z,19.85
2023-05-14T03:01:37.541Z,19.8
2023-05-14T03:07:24.950Z,19.81
2023-05-14T03:13:09.850Z,19.76
2023-05-14T03:18:54.793Z,19.72
2023-05-14T03:24:40.258Z,19.68
2023-05-14T03:30:25.222Z,19.66
2023-05-14T03:36:10.732Z,19.68
2023-05-14T03:41:55.449Z,19.64
2023-05-14T03:47:41.443Z,19.64
2023-05-14T03:53:26.665Z,19.62
2023-05-14T03:59:11.380Z,19.57
2023-05-14T04:04:56.142Z,19.58
2023-05-14T04:10:42.511Z,19.55
2023-05-14T04:16:27.308Z,19.51
2023-05-14T04:22:12.352Z,19.47
2023-05-14T04:27:57.233Z,19.45
2023-05-14T04:33:43.535Z,19.43
2023-05-14T04:39:30.045Z,19.47
2023-05-14T04:45:15.709Z,19.47
2023-05-14T04:51:00.768Z,19.47
2023-05-14T04:56:48.716Z,19.47
2023-05-14T05:02:33.589Z,19.49
2023-05-14T05:08:18.553Z,19.6
2023-05-14T05:14:03.202Z,19.57
2023-05-14T05:19:47.968Z,19.56
2023-05-14T05:25:32.497Z,19.57
2023-05-14T05:31:19.616Z,19.6
2023-05-14T05:37:04.864Z,19.67
2023-05-14T05:42:49.761Z,19.66
2023-05-14T05:48:34.406Z,19.7
2023-05-14T05:54:20.120Z,19.76
2023-05-14T06:00:05.498Z,19.81
2023-05-14T06:05:50.452Z,19.89
2023-05-14T06:11:35.487Z,19.92
2023-05-14T06:17:20.178Z,19.95
2023-05-14T06:23:05.091Z,19.95
2023-05-14T06:28:49.719Z,19.95
2023-05-14T06:34:34.367Z,19.97
2023-05-14T06:40:19.427Z,20
2023-05-14T06:46:04.789Z,20.07
2023-05-14T06:51:49.435Z,20.19
2023-05-14T06:57:34.115Z,20.27
2023-05-14T07:03:22.085Z,20.29
2023-05-14T07:09:06.969Z,20.32
2023-05-14T07:14:52.494Z,20.31
2023-05-14T07:20:37.074Z,20.36
2023-05-14T07:26:21.952Z,20.36
2023-05-14T07:32:06.658Z,20.38
2023-05-14T07:37:51.519Z,20.53
2023-05-14T07:43:36.130Z,20.5
2023-05-14T07:49:20.989Z,20.5
2023-05-14T07:55:06.869Z,20.54
2023-05-14T08:00:51.624Z,20.53
2023-05-14T08:06:36.448Z,20.58
2023-05-14T08:12:21.242Z,20.76
2023-05-14T08:18:06.078Z,20.74
2023-05-14T08:23:51.008Z,20.77
2023-05-14T08:29:35.962Z,20.84
2023-05-14T08:35:20.918Z,20.87
2023-05-14T08:41:06.117Z,20.92
2023-05-14T08:46:51.232Z,21.18
2023-05-14T08:52:36.035Z,21.37
2023-05-14T08:58:20.903Z,21.48
2023-05-14T09:04:06.131Z,21.43
2023-05-14T09:09:51.445Z,21.48
2023-05-14T09:15:37.004Z,21.59
2023-05-14T09:21:21.891Z,21.68
2023-05-14T09:27:07.257Z,21.8
2023-05-14T09:32:53.675Z,21.85
2023-05-14T09:38:38.652Z,22.07
2023-05-14T09:44:23.463Z,22.23
2023-05-14T09:50:08.916Z,22.61
2023-05-14T09:55:53.666Z,23.05
2023-05-14T10:01:38.980Z,23.33
2023-05-14T10:07:29.563Z,23.53
2023-05-14T10:13:14.798Z,24
2023-05-14T10:19:01.496Z,24.17
2023-05-14T10:24:46.716Z,24.35
2023-05-14T10:30:31.873Z,24.57
2023-05-14T10:36:17.519Z,24.67
2023-05-14T10:42:02.468Z,25.18
2023-05-14T10:47:47.349Z,25.34
2023-05-14T10:53:38.993Z,25.57
2023-05-14T10:59:25.195Z,25.63
2023-05-14T11:05:10.862Z,26.04
2023-05-14T11:10:55.998Z,26.1
2023-05-14T11:16:40.640Z,26.38
2023-05-14T11:22:25.630Z,27.01
2023-05-14T11:28:10.478Z,27.25
2023-05-14T11:33:55.971Z,27.31
2023-05-14T11:39:45.641Z,27.28
2023-05-14T11:45:30.449Z,27.83
2023-05-14T11:51:15.184Z,27.8
2023-05-14T11:57:00.598Z,27.84
2023-05-14T12:02:47.846Z,28.07
2023-05-14T12:08:33.192Z,27.84
2023-05-14T12:14:19.269Z,28.02
2023-05-14T12:20:05.025Z,28.49
2023-05-14T12:25:56.083Z,28.41
2023-05-14T12:31:45.196Z,28.37
2023-05-14T12:37:31.204Z,28.59
2023-05-14T12:43:15.984Z,28.85
2023-05-14T12:49:00.841Z,29.09
2023-05-14T12:54:45.600Z,29.42
2023-05-14T13:00:30.461Z,29.54
2023-05-14T13:06:15.360Z,29.84
2023-05-14T13:12:00.083Z,30.1
2023-05-14T13:17:44.884Z,30.05
2023-05-14T13:23:29.945Z,30.32
2023-05-14T13:29:14.746Z,30.16
2023-05-14T13:34:59.506Z,30.45
2023-05-14T13:40:44.393Z,30.53
2023-05-14T13:46:29.325Z,30.54
2023-05-14T13:52:14.343Z,30.85
2023-05-14T13:58:01.202Z,31.13
2023-05-14T14:03:46.037Z,31.31
2023-05-14T14:09:30.867Z,31.55
2023-05-14T14:15:15.650Z,31.67
2023-05-14T14:21:00.460Z,31.95
2023-05-14T14:26:45.216Z,31.95
2023-05-14T14:32:29.954Z,32.06
2023-05-14T14:38:14.718Z,32.23
2023-05-14T14:43:59.464Z,32.44
2023-05-14T14:49:44.087Z,31.96
2023-05-14T14:55:29.153Z,31.51
2023-05-14T15:01:13.984Z,31.19
2023-05-14T15:06:59.902Z,31.02
2023-05-14T15:12:44.697Z,30.9
2023-05-14T15:18:29.435Z,30.63
2023-05-14T15:24:15.024Z,30.39
2023-05-14T15:30:00.516Z,30.11
2023-05-14T15:35:45.413Z,30.03
2023-05-14T15:41:30.257Z,30.01
2023-05-14T15:47:14.800Z,29.93
2023-05-14T15:53:00.178Z,29.85
2023-05-14T15:58:45.115Z,29.65
2023-05-14T16:04:29.922Z,29.49
2023-05-14T16:10:14.773Z,29.39
2023-05-14T16:15:59.598Z,29.39
2023-05-14T16:21:44.729Z,29.33
2023-05-14T16:27:29.676Z,29.23
2023-05-14T16:33:14.524Z,28.98
2023-05-14T16:39:07.064Z,28.7
2023-05-14T16:44:51.970Z,28.54
2023-05-14T16:50:36.874Z,28.36
2023-05-14T16:56:24.871Z,28.56
2023-05-14T17:02:09.660Z,28.71
2023-05-14T17:07:54.496Z,28.86
2023-05-14T17:13:39.189Z,29.05
2023-05-14T17:19:24.034Z,29.26
2023-05-14T17:25:09.442Z,29.28
2023-05-14T17:30:54.172Z,29.22
2023-05-14T17:36:39.306Z,28.9
2023-05-14T17:42:23.979Z,28.61
2023-05-14T17:48:08.970Z,28.55
2023-05-14T17:53:53.924Z,28.45
2023-05-14T17:59:38.732Z,28.14
2023-05-14T18:05:25.133Z,27.81
2023-05-14T18:11:10.756Z,27.48
2023-05-14T18:16:55.490Z,27.17
2023-05-14T18:22:40.742Z,26.98
2023-05-14T18:28:25.429Z,26.78
2023-05-14T18:34:10.092Z,26.58
2023-05-14T18:39:54.853Z,26.37
2023-05-14T18:45:39.956Z,26.11
2023-05-14T18:51:24.975Z,25.87
2023-05-14T18:57:10.680Z,25.65
2023-05-14T19:02:55.654Z,25.47
2023-05-14T19:08:40.721Z,25.32
2023-05-14T19:14:25.456Z,25.11
2023-05-14T19:20:11.084Z,24.91
2023-05-14T19:25:55.818Z,24.72
2023-05-14T19:31:41.127Z,24.54
2023-05-14T19:37:29.041Z,24.38
2023-05-14T19:43:13.924Z,24.21
2023-05-14T19:48:58.833Z,24.05
2023-05-14T19:54:43.632Z,23.89
2023-05-14T20:00:28.655Z,23.75
2023-05-14T20:06:13.538Z,23.62
2023-05-14T20:11:58.264Z,23.48
2023-05-14T20:17:43.001Z,23.31
2023-05-14T20:23:27.937Z,23.19
2023-05-14T20:29:12.673Z,23.08
2023-05-14T20:34:57.428Z,23.02
2023-05-14T20:40:42.179Z,22.97
2023-05-14T20:46:27.334Z,22.88
2023-05-14T20:52:12.092Z,22.78
2023-05-14T20:57:56.689Z,22.7
2023-05-14T21:03:41.638Z,22.65
2023-05-14T21:09:28.291Z,22.59
2023-05-14T21:15:13.440Z,22.51
2023-05-14T21:20:58.077Z,22.42
2023-05-14T21:26:43.114Z,22.4
2023-05-14T21:32:27.829Z,22.31
2023-05-14T21:38:12.594Z,22.2
2023-05-14T21:43:57.326Z,22.25
2023-05-14T21:49:42.225Z,22.08
2023-05-14T21:55:27.820Z,21.98
2023-05-14T22:01:12.775Z,21.86
2023-05-14T22:06:57.821Z,21.81
2023-05-14T22:12:43.420Z,21.72
2023-05-14T22:18:28.225Z,21.56
2023-05-14T22:24:12.953Z,21.42
2023-05-14T22:29:58.154Z,21.27
2023-05-14T22:35:42.836Z,21.14
2023-05-14T22:41:27.541Z,21.02
2023-05-14T22:47:12.547Z,20.9
2023-05-14T22:52:57.297Z,20.82
2023-05-14T22:58:41.972Z,20.75
2023-05-14T23:04:26.582Z,20.66
2023-05-14T23:10:11.960Z,20.58
2023-05-14T23:15:56.643Z,20.5
2023-05-14T23:21:42.141Z,20.42
2023-05-14T23:27:26.900Z,20.35
2023-05-14T23:33:11.716Z,20.26
2023-05-14T23:38:56.556Z,20.2
2023-05-14T23:44:41.338Z,20.13
2023-05-14T23:50:26.076Z,20.06
2023-05-14T23:56:11.511Z,20.01
